01:03
Airports
Links
Donate
Help keep this website running!
PayPal
Bitcoin
METAR
KCRG 180053Z 34005KT 10SM CLR 17/14 A3009 RMK AO2 SLP190 T01670139
Current Weather Conditions at KCRG
VFR 00:53:00 18-11-17
Automated station
Altimeter:30.09 hg
Temp:16.7°c 61°f
Dew point:13.9°c 55°f
Wind:5 knots, 5.8 mph, 3 m/s, from 340°
Visibility:10.0 statute miles
(CLR) Clear
Past METAR reports
VFR 23:53:00 17-11-17
Automated station
Altimeter:30.10 hg
Temp:17.8°c 63°f
Dew point:14.4°c 57°f
Wind:7 knots, 8.1 mph, 4 m/s, from 350°
Visibility:10.0 statute miles
5000(FEW) A few
4100(FEW) A few
KCRG 172353Z 35007KT 10SM FEW041 FEW050 18/14 A3010 RMK AO2 SLP193 T01780144 10233 20178 53006
VFR 22:53:00 17-11-17
Automated station
Altimeter:30.09 hg
Temp:18.3°c 64°f
Dew point:14.4°c 57°f
Wind:7 knots, 8.1 mph, 4 m/s, from 10°
Visibility:10.0 statute miles
(CLR) Clear
KCRG 172253Z 01007KT 10SM CLR 18/14 A3009 RMK AO2 SLP188 T01830144
VFR 21:53:00 17-11-17
Automated station
Altimeter:30.09 hg
Temp:19.4°c 66°f
Dew point:13.9°c 55°f
Wind:10 knots, 11.5 mph, 5 m/s, from 30°
Visibility:10.0 statute miles
4600(SCT) Scattered
KCRG 172153Z 03010KT 10SM SCT046 19/14 A3009 RMK AO2 SLP187 T01940139
VFR 20:53:00 17-11-17
Automated station
Altimeter:30.09 hg
Temp:21.1°c 70°f
Dew point:12.8°c 54°f
Wind:11 knots, 12.7 mph, 6 m/s, from 30°
Visibility:10.0 statute miles
4600(SCT) Scattered
KCRG 172053Z 03011KT 10SM SCT046 21/13 A3009 RMK AO2 SLP187 T02110128 56008
VFR 19:53:00 17-11-17
Automated station
Altimeter:30.09 hg
Temp:21.7°c 70°f
Dew point:12.2°c 54°f
Wind:11 knots, 12.7 mph, 6 m/s, from 20°
Visibility:10.0 statute miles
4700(SCT) Scattered
KCRG 171953Z 02011G17KT 10SM SCT047 22/12 A3009 RMK AO2 SLP188 T02170122
TAF
KCRG 172320Z 1800/1824 06009KT P6SM SCT050 FM180300 VRB03KT P6SM FEW250 FM181500 21008KT P6SM SCT250
Forecast at KCRG
00:00 18-11-17 to 03:00 18-11-17
Wind:9 Knots from 60°
Visibility:6.21 statute miles
5000SCT Scattered
FM 03:00 18-11-17 to 15:00 18-11-17
Wind:3 Knots from 360°
Visibility:6.21 statute miles
25000FEW A few
FM 15:00 18-11-17 to 00:00 19-11-17
Wind:8 Knots from 210°
Visibility:6.21 statute miles
25000SCT Scattered